Overview Statistics Trail Chart Weather Telemetry Raw packets
 

This is the latest recevied weather packets stored in our database for station/object IW1RCO-13. If no packets are shown the sender has not sent any weather packets the latest 10 day(s).

<< 2 3 4 5 6 7 8 >>
Time Temp. Humidity Pressure Rain* Wind** Luminosity Snow
1788666872 21.67° C 74% 1019.6 hPa - - - -
1788666569 22.22° C 78% 1019.8 hPa - - - -
1788666272 22.22° C 76% 1019.8 hPa - - - -
1788665968 22.22° C 71% 1019.6 hPa - - - -
1788665672 22.78° C 71% 1019.4 hPa - - - -
1788662070 20° C 89% 1019.5 hPa - - - -
1788661773 20° C 90% 1019.6 hPa - - - -
1788661470 20° C 89% 1019.4 hPa - - - -
1788661173 20° C 90% 1019 hPa - - - -
1788660870 20° C 89% 1019.8 hPa - - - -
1788660573 21.11° C 84% 1018.7 hPa - - - -
1788660269 22.78° C 71% 1018.8 hPa - - - -
1788659973 23.33° C 63% 1019.2 hPa - - - -
1788659669 23.89° C 63% 1019.8 hPa - - - -
1788659372 23.33° C 63% 1019.1 hPa - - - -
1788659069 23.33° C 63% 1020.2 hPa - - - -
1788658772 23.33° C 65% 1019.7 hPa - - - -
1788658468 23.33° C 65% 1019.8 hPa - - - -
1788658172 22.78° C 66% 1019.8 hPa - - - -
1788657868 22.78° C 67% 1019.2 hPa - - - -
1788657571 22.78° C 68% 1019.6 hPa - - - -
1788657268 23.33° C 67% 1019.4 hPa - - - -
1788656971 23.33° C 65% 1019.8 hPa - - - -
1788656668 23.33° C 66% 1019.8 hPa - - - -
1788656371 23.33° C 67% 1019.1 hPa - - - -

* Rain since midnight (hover to see other rain measurements)
** Current wind speed in m/s (hover to see current wind gust speed)